sensor_id;sensor_type;location;lat;lon;timestamp;P1;durP1;ratioP1;P2;durP2;ratioP2
34832;SDS011;55941;50.800;4.342;2023-03-04T00:02:03;20.80;;;9.70;;
34832;SDS011;55941;50.800;4.342;2023-03-04T00:04:29;35.95;;;13.63;;
34832;SDS011;55941;50.800;4.342;2023-03-04T00:06:56;24.02;;;13.43;;
34832;SDS011;55941;50.800;4.342;2023-03-04T00:09:22;32.97;;;13.05;;
34832;SDS011;55941;50.800;4.342;2023-03-04T00:11:48;28.55;;;13.25;;
34832;SDS011;55941;50.800;4.342;2023-03-04T00:14:13;32.00;;;12.98;;
34832;SDS011;55941;50.800;4.342;2023-03-04T00:16:39;26.65;;;12.63;;
34832;SDS011;55941;50.800;4.342;2023-03-04T00:19:05;30.75;;;12.75;;
34832;SDS011;55941;50.800;4.342;2023-03-04T00:21:31;33.70;;;12.82;;
34832;SDS011;55941;50.800;4.342;2023-03-04T00:23:57;25.30;;;12.52;;
34832;SDS011;55941;50.800;4.342;2023-03-04T00:26:24;26.73;;;10.88;;
34832;SDS011;55941;50.800;4.342;2023-03-04T00:28:50;25.10;;;8.48;;
34832;SDS011;55941;50.800;4.342;2023-03-04T00:31:16;31.65;;;8.88;;
34832;SDS011;55941;50.800;4.342;2023-03-04T00:33:42;23.48;;;8.98;;
34832;SDS011;55941;50.800;4.342;2023-03-04T00:36:08;26.02;;;9.38;;
34832;SDS011;55941;50.800;4.342;2023-03-04T00:38:35;29.63;;;8.18;;
34832;SDS011;55941;50.800;4.342;2023-03-04T00:41:01;29.42;;;9.63;;
34832;SDS011;55941;50.800;4.342;2023-03-04T00:43:27;32.97;;;9.55;;
34832;SDS011;55941;50.800;4.342;2023-03-04T00:45:54;32.80;;;8.77;;
34832;SDS011;55941;50.800;4.342;2023-03-04T00:48:20;28.60;;;8.23;;
34832;SDS011;55941;50.800;4.342;2023-03-04T00:50:46;36.17;;;8.77;;
34832;SDS011;55941;50.800;4.342;2023-03-04T00:53:13;28.90;;;8.10;;
34832;SDS011;55941;50.800;4.342;2023-03-04T00:55:39;37.17;;;9.50;;
34832;SDS011;55941;50.800;4.342;2023-03-04T00:58:05;38.53;;;8.32;;
34832;SDS011;55941;50.800;4.342;2023-03-04T01:00:31;39.15;;;8.48;;
34832;SDS011;55941;50.800;4.342;2023-03-04T01:02:57;27.90;;;8.75;;
34832;SDS011;55941;50.800;4.342;2023-03-04T01:05:23;24.42;;;7.45;;
34832;SDS011;55941;50.800;4.342;2023-03-04T01:07:49;28.73;;;6.85;;
34832;SDS011;55941;50.800;4.342;2023-03-04T01:10:15;30.90;;;7.05;;
34832;SDS011;55941;50.800;4.342;2023-03-04T01:12:41;33.53;;;7.43;;
34832;SDS011;55941;50.800;4.342;2023-03-04T01:15:07;30.98;;;7.45;;
34832;SDS011;55941;50.800;4.342;2023-03-04T01:17:35;27.23;;;6.72;;
34832;SDS011;55941;50.800;4.342;2023-03-04T01:20:01;31.20;;;7.55;;
34832;SDS011;55941;50.800;4.342;2023-03-04T01:22:28;34.65;;;7.85;;
34832;SDS011;55941;50.800;4.342;2023-03-04T01:24:54;31.88;;;7.80;;
34832;SDS011;55941;50.800;4.342;2023-03-04T01:27:20;31.38;;;8.07;;
34832;SDS011;55941;50.800;4.342;2023-03-04T01:29:46;31.95;;;7.28;;
34832;SDS011;55941;50.800;4.342;2023-03-04T01:32:12;30.27;;;6.65;;
34832;SDS011;55941;50.800;4.342;2023-03-04T01:34:38;35.95;;;7.10;;
34832;SDS011;55941;50.800;4.342;2023-03-04T01:37:05;34.83;;;7.55;;
34832;SDS011;55941;50.800;4.342;2023-03-04T01:39:31;35.13;;;8.40;;
34832;SDS011;55941;50.800;4.342;2023-03-04T01:41:57;29.27;;;6.22;;
34832;SDS011;55941;50.800;4.342;2023-03-04T01:44:23;29.00;;;6.60;;
34832;SDS011;55941;50.800;4.342;2023-03-04T01:46:51;24.73;;;6.07;;
34832;SDS011;55941;50.800;4.342;2023-03-04T01:49:18;37.05;;;6.35;;
34832;SDS011;55941;50.800;4.342;2023-03-04T01:51:52;29.52;;;6.55;;
34832;SDS011;55941;50.800;4.342;2023-03-04T01:54:19;29.05;;;6.20;;
34832;SDS011;55941;50.800;4.342;2023-03-04T01:56:46;29.20;;;6.10;;
34832;SDS011;55941;50.800;4.342;2023-03-04T01:59:21;21.45;;;6.05;;
34832;SDS011;55941;50.800;4.342;2023-03-04T02:01:50;35.25;;;6.20;;
34832;SDS011;55941;50.800;4.342;2023-03-04T02:06:48;30.20;;;6.22;;
34832;SDS011;55941;50.800;4.342;2023-03-04T02:09:15;24.08;;;6.38;;
34832;SDS011;55941;50.800;4.342;2023-03-04T02:11:42;36.55;;;6.68;;
34832;SDS011;55941;50.800;4.342;2023-03-04T02:14:10;24.90;;;6.32;;
34832;SDS011;55941;50.800;4.342;2023-03-04T02:16:37;32.90;;;7.28;;
34832;SDS011;55941;50.800;4.342;2023-03-04T02:19:04;28.90;;;6.72;;
34832;SDS011;55941;50.800;4.342;2023-03-04T02:21:36;43.17;;;6.72;;
34832;SDS011;55941;50.800;4.342;2023-03-04T02:24:04;33.70;;;6.78;;
34832;SDS011;55941;50.800;4.342;2023-03-04T02:26:41;31.52;;;6.28;;
34832;SDS011;55941;50.800;4.342;2023-03-04T02:29:12;37.78;;;7.40;;
34832;SDS011;55941;50.800;4.342;2023-03-04T02:31:42;30.63;;;6.65;;
34832;SDS011;55941;50.800;4.342;2023-03-04T02:34:13;35.55;;;7.47;;
34832;SDS011;55941;50.800;4.342;2023-03-04T02:36:41;22.00;;;7.10;;
34832;SDS011;55941;50.800;4.342;2023-03-04T02:39:27;32.38;;;6.40;;
34832;SDS011;55941;50.800;4.342;2023-03-04T02:41:56;26.95;;;6.20;;
34832;SDS011;55941;50.800;4.342;2023-03-04T02:44:25;40.08;;;6.72;;
34832;SDS011;55941;50.800;4.342;2023-03-04T02:46:55;48.65;;;6.68;;
34832;SDS011;55941;50.800;4.342;2023-03-04T02:49:22;30.25;;;5.57;;
34832;SDS011;55941;50.800;4.342;2023-03-04T02:51:57;26.17;;;5.72;;
34832;SDS011;55941;50.800;4.342;2023-03-04T02:54:29;25.85;;;6.20;;
34832;SDS011;55941;50.800;4.342;2023-03-04T02:56:58;35.03;;;7.05;;
34832;SDS011;55941;50.800;4.342;2023-03-04T02:59:28;23.75;;;6.20;;
34832;SDS011;55941;50.800;4.342;2023-03-04T03:01:56;30.08;;;6.32;;
34832;SDS011;55941;50.800;4.342;2023-03-04T03:04:22;34.20;;;6.13;;
34832;SDS011;55941;50.800;4.342;2023-03-04T03:06:52;37.53;;;7.13;;
34832;SDS011;55941;50.800;4.342;2023-03-04T03:09:18;30.95;;;6.25;;
34832;SDS011;55941;50.800;4.342;2023-03-04T03:11:44;31.60;;;5.97;;
34832;SDS011;55941;50.800;4.342;2023-03-04T03:14:11;32.60;;;6.05;;
34832;SDS011;55941;50.800;4.342;2023-03-04T03:16:37;44.67;;;6.85;;
34832;SDS011;55941;50.800;4.342;2023-03-04T03:19:03;40.40;;;7.07;;
34832;SDS011;55941;50.800;4.342;2023-03-04T03:21:29;35.22;;;6.20;;
34832;SDS011;55941;50.800;4.342;2023-03-04T03:23:55;37.40;;;6.78;;
34832;SDS011;55941;50.800;4.342;2023-03-04T03:26:21;40.78;;;7.70;;
34832;SDS011;55941;50.800;4.342;2023-03-04T03:28:47;23.08;;;6.15;;
34832;SDS011;55941;50.800;4.342;2023-03-04T03:31:13;29.55;;;7.10;;
34832;SDS011;55941;50.800;4.342;2023-03-04T03:33:39;29.20;;;6.30;;
34832;SDS011;55941;50.800;4.342;2023-03-04T03:36:06;34.33;;;7.03;;
34832;SDS011;55941;50.800;4.342;2023-03-04T03:38:33;32.50;;;6.18;;
34832;SDS011;55941;50.800;4.342;2023-03-04T03:40:59;27.48;;;5.93;;
34832;SDS011;55941;50.800;4.342;2023-03-04T03:43:25;26.58;;;6.53;;
34832;SDS011;55941;50.800;4.342;2023-03-04T03:45:51;28.92;;;6.25;;
34832;SDS011;55941;50.800;4.342;2023-03-04T03:48:17;36.92;;;6.28;;
34832;SDS011;55941;50.800;4.342;2023-03-04T03:50:43;32.55;;;7.03;;
34832;SDS011;55941;50.800;4.342;2023-03-04T03:53:10;28.27;;;6.45;;
34832;SDS011;55941;50.800;4.342;2023-03-04T03:55:36;34.60;;;5.90;;
34832;SDS011;55941;50.800;4.342;2023-03-04T03:58:03;29.40;;;6.70;;
34832;SDS011;55941;50.800;4.342;2023-03-04T04:00:29;31.85;;;7.03;;
34832;SDS011;55941;50.800;4.342;2023-03-04T04:02:55;34.03;;;7.30;;
34832;SDS011;55941;50.800;4.342;2023-03-04T04:05:25;34.92;;;7.55;;
34832;SDS011;55941;50.800;4.342;2023-03-04T04:07:51;30.38;;;6.95;;
34832;SDS011;55941;50.800;4.342;2023-03-04T04:10:17;39.30;;;8.75;;
34832;SDS011;55941;50.800;4.342;2023-03-04T04:12:44;38.95;;;8.35;;
34832;SDS011;55941;50.800;4.342;2023-03-04T04:15:11;34.22;;;7.72;;
34832;SDS011;55941;50.800;4.342;2023-03-04T04:17:37;43.20;;;8.70;;
34832;SDS011;55941;50.800;4.342;2023-03-04T04:20:04;44.53;;;8.55;;
34832;SDS011;55941;50.800;4.342;2023-03-04T04:22:31;32.20;;;9.05;;
34832;SDS011;55941;50.800;4.342;2023-03-04T04:24:58;30.88;;;9.73;;
34832;SDS011;55941;50.800;4.342;2023-03-04T04:27:24;27.50;;;8.43;;
34832;SDS011;55941;50.800;4.342;2023-03-04T04:29:50;31.55;;;7.85;;
34832;SDS011;55941;50.800;4.342;2023-03-04T04:32:16;39.45;;;9.38;;
34832;SDS011;55941;50.800;4.342;2023-03-04T04:34:42;51.40;;;9.52;;
34832;SDS011;55941;50.800;4.342;2023-03-04T04:37:08;30.45;;;8.98;;
34832;SDS011;55941;50.800;4.342;2023-03-04T04:39:34;43.90;;;10.02;;
34832;SDS011;55941;50.800;4.342;2023-03-04T04:42:01;39.10;;;10.48;;
34832;SDS011;55941;50.800;4.342;2023-03-04T04:44:27;34.30;;;10.10;;
34832;SDS011;55941;50.800;4.342;2023-03-04T04:46:53;36.80;;;9.90;;
34832;SDS011;55941;50.800;4.342;2023-03-04T04:49:19;29.85;;;9.05;;
34832;SDS011;55941;50.800;4.342;2023-03-04T04:51:45;40.22;;;9.40;;
34832;SDS011;55941;50.800;4.342;2023-03-04T04:54:11;34.65;;;9.35;;
34832;SDS011;55941;50.800;4.342;2023-03-04T04:56:38;33.75;;;9.90;;
34832;SDS011;55941;50.800;4.342;2023-03-04T04:59:04;28.67;;;9.00;;
34832;SDS011;55941;50.800;4.342;2023-03-04T05:01:33;27.27;;;9.00;;
34832;SDS011;55941;50.800;4.342;2023-03-04T05:03:59;46.50;;;9.50;;
34832;SDS011;55941;50.800;4.342;2023-03-04T05:06:26;31.98;;;9.60;;
34832;SDS011;55941;50.800;4.342;2023-03-04T05:08:52;33.15;;;9.65;;
34832;SDS011;55941;50.800;4.342;2023-03-04T05:11:18;36.15;;;9.07;;
34832;SDS011;55941;50.800;4.342;2023-03-04T05:13:44;36.28;;;9.32;;
34832;SDS011;55941;50.800;4.342;2023-03-04T05:16:10;28.55;;;8.95;;
34832;SDS011;55941;50.800;4.342;2023-03-04T05:18:37;39.10;;;10.35;;
34832;SDS011;55941;50.800;4.342;2023-03-04T05:21:03;38.67;;;9.30;;
34832;SDS011;55941;50.800;4.342;2023-03-04T05:23:31;29.42;;;8.98;;
34832;SDS011;55941;50.800;4.342;2023-03-04T05:25:59;32.15;;;9.18;;
34832;SDS011;55941;50.800;4.342;2023-03-04T05:28:25;42.08;;;9.48;;
34832;SDS011;55941;50.800;4.342;2023-03-04T05:30:51;38.03;;;9.45;;
34832;SDS011;55941;50.800;4.342;2023-03-04T05:33:17;32.30;;;8.95;;
34832;SDS011;55941;50.800;4.342;2023-03-04T05:35:44;33.08;;;7.95;;
34832;SDS011;55941;50.800;4.342;2023-03-04T05:38:11;26.73;;;7.78;;
34832;SDS011;55941;50.800;4.342;2023-03-04T05:40:39;43.08;;;8.60;;
34832;SDS011;55941;50.800;4.342;2023-03-04T05:43:06;31.45;;;7.93;;
34832;SDS011;55941;50.800;4.342;2023-03-04T05:45:32;28.23;;;7.82;;
34832;SDS011;55941;50.800;4.342;2023-03-04T05:47:59;38.30;;;8.85;;
34832;SDS011;55941;50.800;4.342;2023-03-04T05:50:25;30.20;;;8.02;;
34832;SDS011;55941;50.800;4.342;2023-03-04T05:52:51;33.95;;;7.95;;
34832;SDS011;55941;50.800;4.342;2023-03-04T05:55:17;23.63;;;8.13;;
34832;SDS011;55941;50.800;4.342;2023-03-04T05:57:45;40.03;;;8.00;;
34832;SDS011;55941;50.800;4.342;2023-03-04T06:00:11;33.80;;;8.77;;
34832;SDS011;55941;50.800;4.342;2023-03-04T06:02:39;33.15;;;7.65;;
34832;SDS011;55941;50.800;4.342;2023-03-04T06:05:06;44.42;;;8.73;;
34832;SDS011;55941;50.800;4.342;2023-03-04T06:07:33;35.10;;;8.10;;
34832;SDS011;55941;50.800;4.342;2023-03-04T06:09:59;28.85;;;7.40;;
34832;SDS011;55941;50.800;4.342;2023-03-04T06:12:25;35.22;;;7.97;;
34832;SDS011;55941;50.800;4.342;2023-03-04T06:14:52;35.45;;;8.50;;
34832;SDS011;55941;50.800;4.342;2023-03-04T06:17:19;27.10;;;7.57;;
34832;SDS011;55941;50.800;4.342;2023-03-04T06:19:45;31.83;;;7.13;;
34832;SDS011;55941;50.800;4.342;2023-03-04T06:22:11;32.88;;;6.53;;
34832;SDS011;55941;50.800;4.342;2023-03-04T06:24:36;30.10;;;5.70;;
34832;SDS011;55941;50.800;4.342;2023-03-04T06:27:03;24.15;;;6.03;;
34832;SDS011;55941;50.800;4.342;2023-03-04T06:29:29;29.75;;;6.47;;
34832;SDS011;55941;50.800;4.342;2023-03-04T06:31:56;25.60;;;5.15;;
34832;SDS011;55941;50.800;4.342;2023-03-04T06:34:24;23.95;;;5.10;;
34832;SDS011;55941;50.800;4.342;2023-03-04T06:36:50;23.75;;;5.05;;
34832;SDS011;55941;50.800;4.342;2023-03-04T06:39:16;18.88;;;4.25;;
34832;SDS011;55941;50.800;4.342;2023-03-04T06:41:42;30.40;;;4.13;;
34832;SDS011;55941;50.800;4.342;2023-03-04T06:44:09;26.55;;;5.20;;
34832;SDS011;55941;50.800;4.342;2023-03-04T06:46:37;28.25;;;4.88;;
34832;SDS011;55941;50.800;4.342;2023-03-04T06:49:03;29.58;;;6.13;;
34832;SDS011;55941;50.800;4.342;2023-03-04T06:51:29;28.58;;;5.40;;
34832;SDS011;55941;50.800;4.342;2023-03-04T06:53:55;33.40;;;5.55;;
34832;SDS011;55941;50.800;4.342;2023-03-04T06:56:21;38.13;;;5.70;;
34832;SDS011;55941;50.800;4.342;2023-03-04T06:58:47;37.67;;;5.40;;
34832;SDS011;55941;50.800;4.342;2023-03-04T07:01:14;27.17;;;5.75;;
34832;SDS011;55941;50.800;4.342;2023-03-04T07:03:45;22.02;;;5.07;;
34832;SDS011;55941;50.800;4.342;2023-03-04T07:06:12;31.75;;;6.10;;
34832;SDS011;55941;50.800;4.342;2023-03-04T07:08:39;21.15;;;5.72;;
34832;SDS011;55941;50.800;4.342;2023-03-04T07:11:06;20.80;;;5.18;;
34832;SDS011;55941;50.800;4.342;2023-03-04T07:13:32;30.83;;;5.13;;
34832;SDS011;55941;50.800;4.342;2023-03-04T07:15:59;41.97;;;6.35;;
34832;SDS011;55941;50.800;4.342;2023-03-04T07:18:25;27.70;;;5.18;;
34832;SDS011;55941;50.800;4.342;2023-03-04T07:20:52;24.52;;;5.38;;
34832;SDS011;55941;50.800;4.342;2023-03-04T07:23:21;31.30;;;5.20;;
34832;SDS011;55941;50.800;4.342;2023-03-04T07:25:47;22.77;;;5.07;;
34832;SDS011;55941;50.800;4.342;2023-03-04T07:28:17;34.72;;;6.20;;
34832;SDS011;55941;50.800;4.342;2023-03-04T07:30:44;38.50;;;5.82;;
34832;SDS011;55941;50.800;4.342;2023-03-04T07:33:10;41.58;;;7.10;;
34832;SDS011;55941;50.800;4.342;2023-03-04T07:35:37;28.77;;;6.30;;
34832;SDS011;55941;50.800;4.342;2023-03-04T07:38:03;35.58;;;6.78;;
34832;SDS011;55941;50.800;4.342;2023-03-04T07:40:29;30.73;;;6.57;;
34832;SDS011;55941;50.800;4.342;2023-03-04T07:42:55;43.80;;;8.10;;
34832;SDS011;55941;50.800;4.342;2023-03-04T07:45:21;41.13;;;9.35;;
34832;SDS011;55941;50.800;4.342;2023-03-04T07:47:48;34.53;;;9.68;;
34832;SDS011;55941;50.800;4.342;2023-03-04T07:50:15;32.58;;;10.55;;
34832;SDS011;55941;50.800;4.342;2023-03-04T07:52:42;29.73;;;9.82;;
34832;SDS011;55941;50.800;4.342;2023-03-04T07:55:10;29.05;;;8.90;;
34832;SDS011;55941;50.800;4.342;2023-03-04T07:57:37;35.13;;;9.27;;
34832;SDS011;55941;50.800;4.342;2023-03-04T08:00:04;32.58;;;10.10;;
34832;SDS011;55941;50.800;4.342;2023-03-04T08:02:31;29.20;;;7.85;;
34832;SDS011;55941;50.800;4.342;2023-03-04T08:04:57;23.60;;;6.82;;
34832;SDS011;55941;50.800;4.342;2023-03-04T08:07:23;28.38;;;6.30;;
34832;SDS011;55941;50.800;4.342;2023-03-04T08:09:49;24.85;;;5.72;;
34832;SDS011;55941;50.800;4.342;2023-03-04T08:12:15;19.88;;;5.97;;
34832;SDS011;55941;50.800;4.342;2023-03-04T08:14:41;20.75;;;4.95;;
34832;SDS011;55941;50.800;4.342;2023-03-04T08:17:07;23.90;;;5.15;;
34832;SDS011;55941;50.800;4.342;2023-03-04T08:19:34;17.80;;;4.88;;
34832;SDS011;55941;50.800;4.342;2023-03-04T08:22:01;19.10;;;4.32;;
34832;SDS011;55941;50.800;4.342;2023-03-04T08:24:27;29.08;;;4.85;;
34832;SDS011;55941;50.800;4.342;2023-03-04T08:26:53;17.33;;;4.38;;
34832;SDS011;55941;50.800;4.342;2023-03-04T08:29:21;22.98;;;5.05;;
34832;SDS011;55941;50.800;4.342;2023-03-04T08:31:49;21.70;;;4.88;;
34832;SDS011;55941;50.800;4.342;2023-03-04T08:34:16;14.75;;;3.90;;
34832;SDS011;55941;50.800;4.342;2023-03-04T08:36:44;20.00;;;3.90;;
34832;SDS011;55941;50.800;4.342;2023-03-04T08:39:14;17.58;;;4.10;;
34832;SDS011;55941;50.800;4.342;2023-03-04T08:41:43;21.02;;;4.65;;
34832;SDS011;55941;50.800;4.342;2023-03-04T08:44:12;26.70;;;4.80;;
34832;SDS011;55941;50.800;4.342;2023-03-04T08:46:40;23.45;;;4.45;;
34832;SDS011;55941;50.800;4.342;2023-03-04T08:49:07;25.58;;;4.93;;
34832;SDS011;55941;50.800;4.342;2023-03-04T08:51:34;22.55;;;5.20;;
34832;SDS011;55941;50.800;4.342;2023-03-04T08:54:04;31.23;;;5.45;;
34832;SDS011;55941;50.800;4.342;2023-03-04T08:56:33;17.67;;;4.55;;
34832;SDS011;55941;50.800;4.342;2023-03-04T08:59:02;18.45;;;4.68;;
34832;SDS011;55941;50.800;4.342;2023-03-04T09:01:28;19.00;;;4.60;;
34832;SDS011;55941;50.800;4.342;2023-03-04T09:03:54;22.85;;;4.70;;
34832;SDS011;55941;50.800;4.342;2023-03-04T09:06:20;21.05;;;4.78;;
34832;SDS011;55941;50.800;4.342;2023-03-04T09:08:47;19.73;;;4.13;;
34832;SDS011;55941;50.800;4.342;2023-03-04T09:11:13;23.95;;;4.40;;
34832;SDS011;55941;50.800;4.342;2023-03-04T09:13:39;28.90;;;4.55;;
34832;SDS011;55941;50.800;4.342;2023-03-04T09:16:09;21.48;;;4.50;;
34832;SDS011;55941;50.800;4.342;2023-03-04T09:18:36;18.90;;;4.53;;
34832;SDS011;55941;50.800;4.342;2023-03-04T09:21:03;22.67;;;4.80;;
34832;SDS011;55941;50.800;4.342;2023-03-04T09:23:36;28.95;;;5.05;;
34832;SDS011;55941;50.800;4.342;2023-03-04T09:26:13;25.13;;;3.90;;
34832;SDS011;55941;50.800;4.342;2023-03-04T09:28:39;21.25;;;3.70;;
34832;SDS011;55941;50.800;4.342;2023-03-04T09:31:12;26.23;;;4.03;;
34832;SDS011;55941;50.800;4.342;2023-03-04T09:33:38;23.67;;;4.18;;
34832;SDS011;55941;50.800;4.342;2023-03-04T09:36:08;26.58;;;5.35;;
34832;SDS011;55941;50.800;4.342;2023-03-04T09:38:39;22.25;;;4.75;;
34832;SDS011;55941;50.800;4.342;2023-03-04T09:41:09;17.73;;;5.57;;
34832;SDS011;55941;50.800;4.342;2023-03-04T09:43:41;23.42;;;4.95;;
34832;SDS011;55941;50.800;4.342;2023-03-04T09:46:13;25.67;;;5.30;;
34832;SDS011;55941;50.800;4.342;2023-03-04T09:48:44;18.50;;;4.85;;
34832;SDS011;55941;50.800;4.342;2023-03-04T09:51:20;27.35;;;5.18;;
34832;SDS011;55941;50.800;4.342;2023-03-04T09:56:33;33.30;;;6.28;;
34832;SDS011;55941;50.800;4.342;2023-03-04T10:01:39;26.02;;;6.13;;
34832;SDS011;55941;50.800;4.342;2023-03-04T10:04:33;20.88;;;5.30;;
34832;SDS011;55941;50.800;4.342;2023-03-04T10:07:07;19.60;;;5.07;;
34832;SDS011;55941;50.800;4.342;2023-03-04T10:09:46;23.42;;;5.38;;
34832;SDS011;55941;50.800;4.342;2023-03-04T10:12:19;21.95;;;5.10;;
34832;SDS011;55941;50.800;4.342;2023-03-04T10:14:50;27.73;;;4.68;;
34832;SDS011;55941;50.800;4.342;2023-03-04T10:17:18;20.52;;;5.18;;
34832;SDS011;55941;50.800;4.342;2023-03-04T10:33:28;18.77;;;5.82;;
34832;SDS011;55941;50.800;4.342;2023-03-04T10:36:04;26.83;;;5.78;;
34832;SDS011;55941;50.800;4.342;2023-03-04T10:38:32;23.05;;;5.50;;
34832;SDS011;55941;50.800;4.342;2023-03-04T10:41:01;21.77;;;5.65;;
34832;SDS011;55941;50.800;4.342;2023-03-04T10:43:40;19.98;;;5.38;;
34832;SDS011;55941;50.800;4.342;2023-03-04T10:46:10;22.40;;;5.70;;
34832;SDS011;55941;50.800;4.342;2023-03-04T10:48:37;24.23;;;5.75;;
34832;SDS011;55941;50.800;4.342;2023-03-04T10:51:10;21.58;;;5.57;;
34832;SDS011;55941;50.800;4.342;2023-03-04T10:53:42;22.63;;;5.10;;
34832;SDS011;55941;50.800;4.342;2023-03-04T11:01:59;17.13;;;5.35;;
34832;SDS011;55941;50.800;4.342;2023-03-04T11:04:35;24.45;;;5.32;;
34832;SDS011;55941;50.800;4.342;2023-03-04T11:07:01;26.95;;;5.90;;
34832;SDS011;55941;50.800;4.342;2023-03-04T11:09:33;23.08;;;5.38;;
34832;SDS011;55941;50.800;4.342;2023-03-04T11:11:59;29.40;;;5.72;;
34832;SDS011;55941;50.800;4.342;2023-03-04T11:14:27;21.27;;;5.35;;
34832;SDS011;55941;50.800;4.342;2023-03-04T11:17:00;19.77;;;5.30;;
34832;SDS011;55941;50.800;4.342;2023-03-04T11:19:34;20.40;;;4.70;;
34832;SDS011;55941;50.800;4.342;2023-03-04T11:22:03;21.02;;;5.30;;
34832;SDS011;55941;50.800;4.342;2023-03-04T11:24:30;15.30;;;4.70;;
34832;SDS011;55941;50.800;4.342;2023-03-04T11:27:04;19.00;;;5.05;;
34832;SDS011;55941;50.800;4.342;2023-03-04T11:32:21;17.85;;;4.63;;
34832;SDS011;55941;50.800;4.342;2023-03-04T11:35:12;21.52;;;4.35;;
34832;SDS011;55941;50.800;4.342;2023-03-04T11:38:22;22.08;;;5.20;;
34832;SDS011;55941;50.800;4.342;2023-03-04T11:43:41;20.75;;;5.13;;
34832;SDS011;55941;50.800;4.342;2023-03-04T11:51:37;23.48;;;4.85;;
34832;SDS011;55941;50.800;4.342;2023-03-04T11:54:40;17.33;;;4.53;;
34832;SDS011;55941;50.800;4.342;2023-03-04T12:00:33;23.60;;;4.97;;
34832;SDS011;55941;50.800;4.342;2023-03-04T12:03:30;20.95;;;4.90;;
34832;SDS011;55941;50.800;4.342;2023-03-04T12:14:51;17.20;;;4.70;;
34832;SDS011;55941;50.800;4.342;2023-03-04T12:20:15;14.98;;;4.53;;
34832;SDS011;55941;50.800;4.342;2023-03-04T12:22:51;18.02;;;4.68;;
34832;SDS011;55941;50.800;4.342;2023-03-04T12:25:43;16.48;;;3.85;;
34832;SDS011;55941;50.800;4.342;2023-03-04T12:28:46;15.45;;;3.95;;
34832;SDS011;55941;50.800;4.342;2023-03-04T12:34:15;13.45;;;3.90;;
34832;SDS011;55941;50.800;4.342;2023-03-04T12:42:37;20.00;;;3.85;;
34832;SDS011;55941;50.800;4.342;2023-03-04T12:45:22;11.65;;;3.28;;
34832;SDS011;55941;50.800;4.342;2023-03-04T12:48:02;20.20;;;3.60;;
34832;SDS011;55941;50.800;4.342;2023-03-04T12:50:41;17.35;;;3.42;;
34832;SDS011;55941;50.800;4.342;2023-03-04T12:53:27;11.43;;;3.50;;
34832;SDS011;55941;50.800;4.342;2023-03-04T12:56:02;14.93;;;3.17;;
34832;SDS011;55941;50.800;4.342;2023-03-04T12:58:31;13.50;;;3.17;;
34832;SDS011;55941;50.800;4.342;2023-03-04T13:04:07;17.60;;;3.13;;
34832;SDS011;55941;50.800;4.342;2023-03-04T13:09:27;12.10;;;3.30;;
34832;SDS011;55941;50.800;4.342;2023-03-04T13:17:38;13.52;;;2.88;;
34832;SDS011;55941;50.800;4.342;2023-03-04T13:22:41;18.55;;;2.90;;
34832;SDS011;55941;50.800;4.342;2023-03-04T13:28:23;12.80;;;2.92;;
34832;SDS011;55941;50.800;4.342;2023-03-04T13:43:56;9.52;;;2.40;;
34832;SDS011;55941;50.800;4.342;2023-03-04T13:56:43;10.65;;;2.17;;
34832;SDS011;55941;50.800;4.342;2023-03-04T14:02:09;26.45;;;3.40;;
34832;SDS011;55941;50.800;4.342;2023-03-04T14:04:45;11.40;;;2.15;;
34832;SDS011;55941;50.800;4.342;2023-03-04T14:07:23;11.35;;;2.20;;
34832;SDS011;55941;50.800;4.342;2023-03-04T14:17:38;12.80;;;2.83;;
34832;SDS011;55941;50.800;4.342;2023-03-04T14:22:53;11.77;;;2.45;;
34832;SDS011;55941;50.800;4.342;2023-03-04T14:28:01;5.18;;;1.55;;
34832;SDS011;55941;50.800;4.342;2023-03-04T14:30:35;4.80;;;1.27;;
34832;SDS011;55941;50.800;4.342;2023-03-04T14:33:01;5.97;;;1.50;;
34832;SDS011;55941;50.800;4.342;2023-03-04T14:35:31;8.93;;;2.40;;
34832;SDS011;55941;50.800;4.342;2023-03-04T14:37:59;4.70;;;1.38;;
34832;SDS011;55941;50.800;4.342;2023-03-04T14:40:33;5.47;;;1.23;;
34832;SDS011;55941;50.800;4.342;2023-03-04T14:43:06;5.53;;;1.35;;
34832;SDS011;55941;50.800;4.342;2023-03-04T14:45:42;4.82;;;1.88;;
34832;SDS011;55941;50.800;4.342;2023-03-04T14:48:10;6.93;;;1.73;;
34832;SDS011;55941;50.800;4.342;2023-03-04T14:50:46;4.82;;;1.50;;
34832;SDS011;55941;50.800;4.342;2023-03-04T14:53:17;5.60;;;1.80;;
34832;SDS011;55941;50.800;4.342;2023-03-04T14:56:01;5.93;;;1.63;;
34832;SDS011;55941;50.800;4.342;2023-03-04T14:58:32;4.35;;;1.63;;
34832;SDS011;55941;50.800;4.342;2023-03-04T15:01:12;13.10;;;1.92;;
34832;SDS011;55941;50.800;4.342;2023-03-04T15:03:41;6.35;;;1.80;;
34832;SDS011;55941;50.800;4.342;2023-03-04T15:06:19;5.95;;;2.25;;
34832;SDS011;55941;50.800;4.342;2023-03-04T15:08:54;11.00;;;2.15;;
34832;SDS011;55941;50.800;4.342;2023-03-04T15:12:00;6.00;;;1.70;;
34832;SDS011;55941;50.800;4.342;2023-03-04T15:14:49;9.15;;;2.42;;
34832;SDS011;55941;50.800;4.342;2023-03-04T15:17:33;6.53;;;2.30;;
34832;SDS011;55941;50.800;4.342;2023-03-04T15:22:54;2.95;;;1.40;;
34832;SDS011;55941;50.800;4.342;2023-03-04T15:25:26;5.75;;;1.70;;
34832;SDS011;55941;50.800;4.342;2023-03-04T15:27:52;3.85;;;1.70;;
34832;SDS011;55941;50.800;4.342;2023-03-04T15:30:22;4.93;;;1.50;;
34832;SDS011;55941;50.800;4.342;2023-03-04T15:32:54;4.45;;;1.85;;
34832;SDS011;55941;50.800;4.342;2023-03-04T15:35:21;5.35;;;1.88;;
34832;SDS011;55941;50.800;4.342;2023-03-04T15:37:49;4.50;;;1.73;;
34832;SDS011;55941;50.800;4.342;2023-03-04T15:40:26;10.32;;;2.10;;
34832;SDS011;55941;50.800;4.342;2023-03-04T15:43:00;6.13;;;2.30;;
34832;SDS011;55941;50.800;4.342;2023-03-04T15:45:28;5.20;;;1.95;;
34832;SDS011;55941;50.800;4.342;2023-03-04T15:47:56;6.55;;;1.65;;
34832;SDS011;55941;50.800;4.342;2023-03-04T15:50:25;6.75;;;1.90;;
34832;SDS011;55941;50.800;4.342;2023-03-04T15:52:54;10.23;;;2.60;;
34832;SDS011;55941;50.800;4.342;2023-03-04T15:55:23;8.70;;;2.90;;
34832;SDS011;55941;50.800;4.342;2023-03-04T15:57:51;10.98;;;2.63;;
34832;SDS011;55941;50.800;4.342;2023-03-04T16:00:19;9.90;;;2.70;;
34832;SDS011;55941;50.800;4.342;2023-03-04T16:02:45;14.93;;;2.25;;
34832;SDS011;55941;50.800;4.342;2023-03-04T16:05:13;5.68;;;2.10;;
34832;SDS011;55941;50.800;4.342;2023-03-04T16:07:43;9.75;;;1.95;;
34832;SDS011;55941;50.800;4.342;2023-03-04T16:10:14;7.35;;;2.10;;
34832;SDS011;55941;50.800;4.342;2023-03-04T16:12:44;8.52;;;2.60;;
34832;SDS011;55941;50.800;4.342;2023-03-04T16:15:15;9.30;;;2.97;;
34832;SDS011;55941;50.800;4.342;2023-03-04T16:17:43;14.15;;;3.40;;
34832;SDS011;55941;50.800;4.342;2023-03-04T16:20:10;8.63;;;2.47;;
34832;SDS011;55941;50.800;4.342;2023-03-04T16:22:39;21.10;;;2.90;;
34832;SDS011;55941;50.800;4.342;2023-03-04T16:25:10;19.25;;;3.05;;
34832;SDS011;55941;50.800;4.342;2023-03-04T16:27:38;9.70;;;2.50;;
34832;SDS011;55941;50.800;4.342;2023-03-04T16:30:17;10.50;;;2.40;;
34832;SDS011;55941;50.800;4.342;2023-03-04T16:32:47;10.80;;;3.50;;
34832;SDS011;55941;50.800;4.342;2023-03-04T16:35:15;10.77;;;3.60;;
34832;SDS011;55941;50.800;4.342;2023-03-04T16:37:42;11.07;;;3.50;;
34832;SDS011;55941;50.800;4.342;2023-03-04T16:40:12;19.73;;;3.42;;
34832;SDS011;55941;50.800;4.342;2023-03-04T16:42:40;13.68;;;2.80;;
34832;SDS011;55941;50.800;4.342;2023-03-04T16:45:09;12.35;;;2.65;;
34832;SDS011;55941;50.800;4.342;2023-03-04T16:47:45;9.95;;;4.45;;
34832;SDS011;55941;50.800;4.342;2023-03-04T16:50:15;11.18;;;3.80;;